EPBY

Bydgoszcz Ignacy Jan Paderewski Airport

Bydgoszcz, Poland
METAR EPBY 152200Z VRB01KT CAVOK 13/12 Q1019
Observed Flight Rules
Aug-15 @ 22:00 UTC (26 minutes ago) Visual Flight Rules
Wind Visibility Clouds
Variable at 1 knots 10,000+ meters
  • Clear skies
Temperatures Readings
Current 13°C / 55°F
Dewpoint 12°C / 54°F
Humidity 94%
Altimeter 30.09" Hg
Pressure 1019 hPa
Elevation 71
METAR EPBY 152200Z VRB01KT CAVOK 13/12 Q1019
Observed Flight Rules
Aug-15 @ 22:00 UTC
(26 minutes ago)
VFR
Wind Visibility
Variable at 1 knots 10,000+ meters
Clouds
  • Clear skies
Temperature Dewpoint
13°C / 55°F 12°C / 54°F
Humidity Altimeter Pressure
94% 30.09" Hg 1019 hPa